createdAt,value
2022-08-27T00:00:10.314Z,18.259583
2022-08-27T00:01:19.989Z,18.249512
2022-08-27T00:02:28.675Z,18.22937
2022-08-27T00:03:36.301Z,18.219299
2022-08-27T00:04:46.115Z,18.219299
2022-08-27T00:05:53.774Z,18.219299
2022-08-27T00:07:02.410Z,18.189087
2022-08-27T00:08:12.222Z,18.189087
2022-08-27T00:09:26.448Z,18.179016
2022-08-27T00:10:30.399Z,18.148804
2022-08-27T00:11:40.075Z,18.158875
2022-08-27T00:12:47.750Z,18.148804
2022-08-27T00:13:57.426Z,18.128662
2022-08-27T00:15:05.103Z,18.108521
2022-08-27T00:16:14.908Z,18.09845
2022-08-27T00:17:24.422Z,18.078308
2022-08-27T00:18:32.077Z,18.09845
2022-08-27T00:19:41.732Z,18.068237
2022-08-27T00:20:50.409Z,18.068237
2022-08-27T00:21:58.093Z,18.038025
2022-08-27T00:23:07.803Z,18.048096
2022-08-27T00:24:15.463Z,18.048096
2022-08-27T00:25:25.143Z,18.078308
2022-08-27T00:26:34.827Z,18.09845
2022-08-27T00:27:44.493Z,18.108521
2022-08-27T00:28:54.170Z,18.108521
2022-08-27T00:30:03.856Z,18.09845
2022-08-27T00:31:13.576Z,18.078308
2022-08-27T00:32:24.188Z,18.078308
2022-08-27T00:33:31.876Z,18.068237
2022-08-27T00:34:40.531Z,18.068237
2022-08-27T00:35:50.202Z,18.048096
2022-08-27T00:36:57.860Z,18.038025
2022-08-27T00:38:07.521Z,18.027954
2022-08-27T00:39:16.276Z,17.997742
2022-08-27T00:40:23.974Z,17.967529
2022-08-27T00:41:33.618Z,17.937317
2022-08-27T00:42:42.279Z,17.866821
2022-08-27T00:43:50.928Z,17.816467
2022-08-27T00:45:00.613Z,17.735901
2022-08-27T00:46:09.341Z,17.675476
2022-08-27T00:47:18.957Z,17.665405
2022-08-27T00:48:27.622Z,17.625122
2022-08-27T00:49:36.371Z,17.574768
2022-08-27T00:50:46.052Z,17.574768
2022-08-27T00:51:54.706Z,17.524414
2022-08-27T00:53:03.373Z,17.514343
2022-08-27T00:54:16.065Z,17.463989
2022-08-27T00:55:22.711Z,17.463989
2022-08-27T00:56:32.396Z,17.443848
2022-08-27T00:57:41.085Z,17.443848
2022-08-27T00:58:49.780Z,17.423706
2022-08-27T00:59:59.443Z,17.443848
2022-08-27T01:01:08.139Z,17.443848
2022-08-27T01:02:18.016Z,17.443848
2022-08-27T01:03:27.525Z,17.443848
2022-08-27T01:04:35.198Z,17.443848
2022-08-27T01:05:44.850Z,17.423706
2022-08-27T01:06:54.534Z,17.423706
2022-08-27T01:08:02.355Z,17.423706
2022-08-27T01:09:12.008Z,17.423706
2022-08-27T01:10:19.650Z,17.423706
2022-08-27T01:11:28.305Z,17.443848
2022-08-27T01:12:37.957Z,17.423706
2022-08-27T01:13:59.439Z,17.443848
2022-08-27T01:14:57.269Z,17.443848
2022-08-27T01:16:05.949Z,17.453918
2022-08-27T01:17:14.582Z,17.443848
2022-08-27T01:18:22.266Z,17.443848
2022-08-27T01:19:29.961Z,17.443848
2022-08-27T01:20:38.616Z,17.443848
2022-08-27T01:21:48.296Z,17.423706
2022-08-27T01:22:55.939Z,17.423706
2022-08-27T01:24:05.604Z,17.413635
2022-08-27T01:25:14.306Z,17.443848
2022-08-27T01:26:23.006Z,17.443848
2022-08-27T01:27:32.703Z,17.423706
2022-08-27T01:28:41.380Z,17.443848
2022-08-27T01:29:50.070Z,17.453918
2022-08-27T01:30:59.888Z,17.443848
2022-08-27T01:32:07.549Z,17.463989
2022-08-27T01:33:17.270Z,17.463989
2022-08-27T01:34:25.868Z,17.484131
2022-08-27T01:35:33.550Z,17.453918
2022-08-27T01:36:43.209Z,17.463989
2022-08-27T01:37:52.311Z,17.443848
2022-08-27T01:39:00.488Z,17.443848
2022-08-27T01:40:10.256Z,17.443848
2022-08-27T01:41:20.837Z,17.413635
2022-08-27T01:42:30.519Z,17.393494
2022-08-27T01:43:40.170Z,17.393494
2022-08-27T01:44:48.827Z,17.383423
2022-08-27T01:45:58.479Z,17.383423
2022-08-27T01:47:07.164Z,17.363281
2022-08-27T01:48:16.864Z,17.383423
2022-08-27T01:49:26.559Z,17.393494
2022-08-27T01:50:35.254Z,17.393494
2022-08-27T01:51:44.936Z,17.393494
2022-08-27T01:52:53.588Z,17.393494
2022-08-27T01:54:02.298Z,17.393494
2022-08-27T01:55:10.954Z,17.413635
2022-08-27T01:56:18.598Z,17.413635
2022-08-27T01:57:28.317Z,17.423706
2022-08-27T01:58:36.970Z,17.423706
2022-08-27T01:59:45.655Z,17.423706
2022-08-27T02:00:56.493Z,17.413635
2022-08-27T02:02:03.167Z,17.443848
2022-08-27T02:03:12.813Z,17.443848
2022-08-27T02:04:21.460Z,17.484131
2022-08-27T02:05:31.126Z,17.484131
2022-08-27T02:06:41.800Z,17.514343
2022-08-27T02:07:49.478Z,17.494202
2022-08-27T02:08:58.170Z,17.494202
2022-08-27T02:10:07.864Z,17.463989
2022-08-27T02:11:16.643Z,17.484131
2022-08-27T02:12:26.309Z,17.494202
2022-08-27T02:13:34.953Z,17.494202
2022-08-27T02:14:42.637Z,17.514343
2022-08-27T02:15:52.373Z,17.524414
2022-08-27T02:17:01.077Z,17.544556
2022-08-27T02:18:09.864Z,17.544556
2022-08-27T02:19:19.406Z,17.544556
2022-08-27T02:20:29.220Z,17.564697
2022-08-27T02:21:37.713Z,17.564697
2022-08-27T02:22:47.484Z,17.574768
2022-08-27T02:23:56.156Z,17.60498
2022-08-27T02:25:05.848Z,17.60498
2022-08-27T02:26:15.503Z,17.625122
2022-08-27T02:27:24.178Z,17.60498
2022-08-27T02:28:33.907Z,17.635193
2022-08-27T02:29:41.560Z,17.625122
2022-08-27T02:30:51.201Z,17.645264
2022-08-27T02:31:59.876Z,17.665405
2022-08-27T02:33:09.535Z,17.665405
2022-08-27T02:34:19.321Z,17.695618
2022-08-27T02:35:26.975Z,17.665405
2022-08-27T02:36:36.639Z,17.695618
2022-08-27T02:37:46.318Z,17.705688
2022-08-27T02:38:53.970Z,17.705688
2022-08-27T02:40:03.713Z,17.735901
2022-08-27T02:41:12.328Z,17.715759
2022-08-27T02:42:19.989Z,17.735901
2022-08-27T02:43:29.648Z,17.735901
2022-08-27T02:44:37.308Z,17.735901
2022-08-27T02:45:45.997Z,17.776184
2022-08-27T02:46:55.720Z,17.756042
2022-08-27T02:48:04.500Z,17.776184
2022-08-27T02:49:14.058Z,17.786255
2022-08-27T02:50:22.896Z,17.786255
2022-08-27T02:51:31.419Z,17.786255
2022-08-27T02:52:41.079Z,17.786255
2022-08-27T02:53:48.715Z,17.776184
2022-08-27T02:54:58.414Z,17.786255
2022-08-27T02:56:08.077Z,17.796326
2022-08-27T02:57:16.747Z,17.796326
2022-08-27T02:58:26.419Z,17.826538
2022-08-27T02:59:36.081Z,17.796326
2022-08-27T03:00:43.728Z,17.786255
2022-08-27T03:01:53.523Z,17.816467
2022-08-27T03:03:02.140Z,17.796326
2022-08-27T03:04:10.786Z,17.816467
2022-08-27T03:05:20.430Z,17.816467
2022-08-27T03:06:29.105Z,17.826538
2022-08-27T03:07:37.750Z,17.816467
2022-08-27T03:08:52.514Z,17.816467
2022-08-27T03:09:55.110Z,17.816467
2022-08-27T03:11:04.776Z,17.826538
2022-08-27T03:12:13.422Z,17.816467
2022-08-27T03:13:23.101Z,17.84668
2022-08-27T03:14:32.914Z,17.816467
2022-08-27T03:15:40.617Z,17.826538
2022-08-27T03:16:50.251Z,17.816467
2022-08-27T03:17:58.919Z,17.826538
2022-08-27T03:19:08.588Z,17.816467
2022-08-27T03:20:19.321Z,17.816467
2022-08-27T03:21:27.016Z,17.796326
2022-08-27T03:22:35.651Z,17.816467
2022-08-27T03:23:45.316Z,17.796326
2022-08-27T03:24:53.998Z,17.796326
2022-08-27T03:26:03.689Z,17.796326
2022-08-27T03:27:13.386Z,17.796326
2022-08-27T03:28:23.088Z,17.796326
2022-08-27T03:29:31.756Z,17.796326
2022-08-27T03:30:41.409Z,17.786255
2022-08-27T03:31:50.083Z,17.776184
2022-08-27T03:32:59.755Z,17.786255
2022-08-27T03:34:08.450Z,17.796326
2022-08-27T03:35:18.111Z,17.816467
2022-08-27T03:36:26.793Z,17.816467
2022-08-27T03:37:34.655Z,17.826538
2022-08-27T03:38:44.328Z,17.826538
2022-08-27T03:39:52.034Z,17.85675
2022-08-27T03:41:00.663Z,17.866821
2022-08-27T03:42:10.345Z,17.84668
2022-08-27T03:43:19.034Z,17.84668
2022-08-27T03:44:28.712Z,17.85675
2022-08-27T03:45:48.314Z,17.866821
2022-08-27T03:46:47.033Z,17.85675
2022-08-27T03:47:55.664Z,17.866821
2022-08-27T03:49:05.381Z,17.84668
2022-08-27T03:50:15.128Z,17.866821
2022-08-27T03:51:22.791Z,17.866821
2022-08-27T03:52:31.459Z,17.897034
2022-08-27T03:53:41.149Z,17.897034
2022-08-27T03:54:48.819Z,17.917175
2022-08-27T03:55:58.483Z,17.937317
2022-08-27T03:57:08.185Z,17.937317
2022-08-27T03:58:16.866Z,17.947388
2022-08-27T03:59:26.539Z,17.947388
2022-08-27T04:00:34.243Z,17.967529
2022-08-27T04:01:43.004Z,17.997742
2022-08-27T04:02:52.679Z,18.007812
2022-08-27T04:04:01.264Z,17.997742
2022-08-27T04:05:10.937Z,17.997742
2022-08-27T04:06:19.615Z,17.997742
2022-08-27T04:07:28.296Z,18.007812
2022-08-27T04:08:37.954Z,17.997742
2022-08-27T04:09:46.626Z,18.027954
2022-08-27T04:10:55.289Z,18.048096
2022-08-27T04:12:03.998Z,18.048096
2022-08-27T04:13:12.662Z,18.09845
2022-08-27T04:14:27.185Z,18.078308
2022-08-27T04:15:31.996Z,18.048096
2022-08-27T04:16:41.643Z,18.038025
2022-08-27T04:17:52.369Z,18.038025
2022-08-27T04:19:00.427Z,18.027954
2022-08-27T04:20:33.780Z,18.048096
2022-08-27T04:21:20.797Z,18.048096
2022-08-27T04:22:28.455Z,18.078308
2022-08-27T04:23:37.156Z,18.078308
2022-08-27T04:24:45.850Z,18.078308
2022-08-27T04:25:53.505Z,18.068237
2022-08-27T04:27:03.183Z,18.078308
2022-08-27T04:28:12.128Z,18.068237
2022-08-27T04:29:20.524Z,18.078308
2022-08-27T04:30:30.199Z,18.068237
2022-08-27T04:31:37.916Z,18.078308
2022-08-27T04:32:47.556Z,18.068237
2022-08-27T04:33:56.228Z,18.09845
2022-08-27T04:35:03.914Z,18.09845
2022-08-27T04:36:14.568Z,18.078308
2022-08-27T04:37:23.451Z,18.09845
2022-08-27T04:38:31.883Z,18.108521
2022-08-27T04:39:41.561Z,18.148804
2022-08-27T04:40:51.324Z,18.148804
2022-08-27T04:42:00.968Z,18.148804
2022-08-27T04:43:08.618Z,18.128662
2022-08-27T04:44:18.277Z,18.148804
2022-08-27T04:45:27.948Z,18.148804
2022-08-27T04:46:36.706Z,18.158875
2022-08-27T04:47:47.311Z,18.158875
2022-08-27T04:48:56.990Z,18.199158
2022-08-27T04:50:05.954Z,18.259583
2022-08-27T04:51:15.308Z,18.259583
2022-08-27T04:52:24.974Z,18.289795
2022-08-27T04:53:32.637Z,18.289795
2022-08-27T04:54:41.303Z,18.289795
2022-08-27T04:55:49.964Z,18.289795
2022-08-27T04:56:58.628Z,18.340149
2022-08-27T04:58:08.386Z,18.340149
2022-08-27T04:59:16.997Z,18.35022
2022-08-27T05:00:26.685Z,18.35022
2022-08-27T05:01:35.383Z,18.370361
2022-08-27T05:02:43.983Z,18.35022
2022-08-27T05:03:53.677Z,18.370361
2022-08-27T05:05:02.388Z,18.380432
2022-08-27T05:06:12.986Z,18.370361
2022-08-27T05:07:22.694Z,18.380432
2022-08-27T05:08:30.368Z,18.370361
2022-08-27T05:09:40.079Z,18.370361
2022-08-27T05:10:49.804Z,18.380432
2022-08-27T05:11:58.473Z,18.400574
2022-08-27T05:13:08.145Z,18.400574
2022-08-27T05:14:15.818Z,18.410645
2022-08-27T05:15:24.505Z,18.410645
2022-08-27T05:16:34.184Z,18.430786
2022-08-27T05:17:42.830Z,18.410645
2022-08-27T05:18:52.478Z,18.440857
2022-08-27T05:20:01.177Z,18.450928
2022-08-27T05:21:10.899Z,18.440857
2022-08-27T05:22:19.522Z,18.430786
2022-08-27T05:23:27.179Z,18.410645
2022-08-27T05:24:37.849Z,18.380432
2022-08-27T05:25:48.458Z,18.370361
2022-08-27T05:26:56.150Z,18.35022
2022-08-27T05:28:05.823Z,18.340149
2022-08-27T05:29:14.493Z,18.35022
2022-08-27T05:30:22.207Z,18.370361
2022-08-27T05:31:31.936Z,18.35022
2022-08-27T05:32:39.623Z,18.380432
2022-08-27T05:33:48.281Z,18.400574
2022-08-27T05:34:58.937Z,18.400574
2022-08-27T05:36:06.616Z,18.410645
2022-08-27T05:37:16.266Z,18.380432
2022-08-27T05:38:24.941Z,18.410645
2022-08-27T05:39:33.647Z,18.410645
2022-08-27T05:40:43.355Z,18.430786
2022-08-27T05:41:51.022Z,18.450928
2022-08-27T05:42:59.761Z,18.491211
2022-08-27T05:44:24.372Z,18.501282
2022-08-27T05:45:20.272Z,18.501282
2022-08-27T05:46:29.940Z,18.531494
2022-08-27T05:47:40.977Z,18.501282
2022-08-27T05:48:48.240Z,18.471069
2022-08-27T05:49:56.940Z,18.491211
2022-08-27T05:51:06.584Z,18.491211
2022-08-27T05:52:17.270Z,18.531494
2022-08-27T05:53:26.955Z,18.531494
2022-08-27T05:54:35.616Z,18.561707
2022-08-27T05:55:45.318Z,18.561707
2022-08-27T05:56:52.963Z,18.591919
2022-08-27T05:58:02.617Z,18.581848
2022-08-27T05:59:11.286Z,18.60199
2022-08-27T06:00:20.961Z,18.622131
2022-08-27T06:01:30.679Z,18.632202
2022-08-27T06:02:39.384Z,18.632202
2022-08-27T06:03:48.003Z,18.652344
2022-08-27T06:04:57.714Z,18.652344
2022-08-27T06:06:07.341Z,18.682556
2022-08-27T06:07:17.037Z,18.702698
2022-08-27T06:08:25.700Z,18.73291
2022-08-27T06:09:33.375Z,18.712769
2022-08-27T06:10:43.051Z,18.712769
2022-08-27T06:11:50.718Z,18.742981
2022-08-27T06:12:59.377Z,18.712769
2022-08-27T06:14:09.049Z,18.702698
2022-08-27T06:15:16.700Z,18.712769
2022-08-27T06:16:26.391Z,18.73291
2022-08-27T06:17:35.089Z,18.803406
2022-08-27T06:18:42.777Z,18.833618
2022-08-27T06:19:52.433Z,18.883972
2022-08-27T06:21:00.085Z,18.924255
2022-08-27T06:22:10.183Z,18.924255
2022-08-27T06:23:18.404Z,18.904114
2022-08-27T06:24:29.172Z,18.924255
2022-08-27T06:25:38.867Z,18.934326
2022-08-27T06:26:48.582Z,18.964539
2022-08-27T06:27:57.267Z,18.964539
2022-08-27T06:29:07.927Z,18.934326
2022-08-27T06:30:17.603Z,18.934326
2022-08-27T06:31:25.361Z,18.954468
2022-08-27T06:32:34.951Z,18.98468
2022-08-27T06:33:42.626Z,18.98468
2022-08-27T06:34:52.278Z,18.954468
2022-08-27T06:36:01.954Z,18.924255
2022-08-27T06:37:09.628Z,18.924255
2022-08-27T06:38:19.293Z,18.924255
2022-08-27T06:39:27.960Z,18.904114
2022-08-27T06:40:36.640Z,18.894043
2022-08-27T06:41:46.310Z,18.894043
2022-08-27T06:42:54.965Z,18.904114
2022-08-27T06:44:04.666Z,18.924255
2022-08-27T06:45:13.361Z,18.964539
2022-08-27T06:46:22.164Z,18.954468
2022-08-27T06:47:31.926Z,18.994751
2022-08-27T06:48:39.579Z,18.994751
2022-08-27T06:49:48.234Z,19.024963
2022-08-27T06:50:57.908Z,19.024963
2022-08-27T06:52:05.577Z,19.065247
2022-08-27T06:53:15.273Z,19.085388
2022-08-27T06:54:24.934Z,19.145813
2022-08-27T06:55:36.736Z,19.206238
2022-08-27T06:56:42.270Z,19.286804
2022-08-27T06:57:50.912Z,19.296875
2022-08-27T06:58:59.612Z,19.327087
2022-08-27T07:00:10.260Z,19.367371
2022-08-27T07:01:17.920Z,19.397583
2022-08-27T07:02:27.619Z,19.387512
2022-08-27T07:03:36.235Z,19.437866
2022-08-27T07:04:44.987Z,19.437866
2022-08-27T07:05:55.657Z,19.478149
2022-08-27T07:07:03.320Z,19.518433
2022-08-27T07:08:13.142Z,19.508362
2022-08-27T07:09:22.631Z,19.478149
2022-08-27T07:10:30.316Z,19.447937
2022-08-27T07:11:39.976Z,19.387512
2022-08-27T07:12:48.649Z,19.387512
2022-08-27T07:13:56.414Z,19.387512
2022-08-27T07:15:05.986Z,19.367371
2022-08-27T07:16:13.779Z,19.387512
2022-08-27T07:17:23.407Z,19.437866
2022-08-27T07:18:33.078Z,19.437866
2022-08-27T07:19:42.732Z,19.447937
2022-08-27T07:20:52.493Z,19.468079
2022-08-27T07:22:01.271Z,19.508362
2022-08-27T07:23:11.043Z,19.518433
2022-08-27T07:24:18.613Z,19.558716
2022-08-27T07:25:26.306Z,19.588928
2022-08-27T07:26:35.019Z,19.629211
2022-08-27T07:27:44.788Z,19.659424
2022-08-27T07:28:53.467Z,19.729919
2022-08-27T07:30:03.137Z,19.760132
2022-08-27T07:31:11.874Z,19.820557
2022-08-27T07:32:20.474Z,19.810486
2022-08-27T07:33:31.125Z,19.760132
2022-08-27T07:34:39.804Z,19.770203
2022-08-27T07:35:48.451Z,19.790344
2022-08-27T07:36:58.115Z,19.850769
2022-08-27T07:38:05.817Z,19.840698
2022-08-27T07:39:15.513Z,19.891052
2022-08-27T07:40:24.289Z,19.921265
2022-08-27T07:41:32.190Z,19.951477
2022-08-27T07:42:41.516Z,19.951477
2022-08-27T07:43:50.191Z,19.921265
2022-08-27T07:44:58.890Z,19.941406
2022-08-27T07:46:08.607Z,19.891052
2022-08-27T07:47:18.206Z,19.86084
2022-08-27T07:48:27.881Z,19.850769
2022-08-27T07:49:37.536Z,19.810486
2022-08-27T07:50:47.426Z,19.810486
2022-08-27T07:51:56.108Z,19.820557
2022-08-27T07:53:03.779Z,19.790344
2022-08-27T07:54:13.420Z,19.790344
2022-08-27T07:55:22.170Z,19.810486
2022-08-27T07:56:30.863Z,19.820557
2022-08-27T07:57:40.570Z,19.840698
2022-08-27T07:58:49.284Z,19.820557
2022-08-27T07:59:58.948Z,19.790344
2022-08-27T08:01:07.652Z,19.790344
2022-08-27T08:02:16.333Z,19.810486
2022-08-27T08:03:26.001Z,19.850769
2022-08-27T08:04:34.658Z,19.911194
2022-08-27T08:05:44.312Z,19.951477
2022-08-27T08:06:53.991Z,19.99176
2022-08-27T08:08:02.655Z,20.042114
2022-08-27T08:09:12.348Z,20.072327
2022-08-27T08:10:21.023Z,20.162964
2022-08-27T08:11:28.674Z,20.213318
2022-08-27T08:12:38.335Z,20.24353
2022-08-27T08:13:47.045Z,20.293884
2022-08-27T08:14:55.725Z,20.314026
2022-08-27T08:16:05.416Z,20.324097
2022-08-27T08:17:14.135Z,20.344238
2022-08-27T08:18:23.755Z,20.394592
2022-08-27T08:19:32.472Z,20.4953
2022-08-27T08:20:57.433Z,20.575867
2022-08-27T08:21:55.153Z,20.696716
2022-08-27T08:23:02.386Z,20.837708
2022-08-27T08:24:12.042Z,20.898132
2022-08-27T08:25:21.754Z,20.99884
2022-08-27T08:26:31.412Z,21.049194
2022-08-27T08:27:41.091Z,21.170044
2022-08-27T08:28:50.785Z,21.321106
2022-08-27T08:29:59.430Z,21.300964
2022-08-27T08:31:09.278Z,21.331177
2022-08-27T08:32:16.934Z,21.290894
2022-08-27T08:33:26.595Z,21.321106
2022-08-27T08:34:36.300Z,21.361389
2022-08-27T08:35:44.977Z,21.431885
2022-08-27T08:36:55.290Z,21.482239
2022-08-27T08:38:03.351Z,21.482239
2022-08-27T08:39:10.992Z,21.431885
2022-08-27T08:40:20.753Z,21.351318
2022-08-27T08:41:29.827Z,21.361389
2022-08-27T08:42:38.029Z,21.462097
2022-08-27T08:43:48.679Z,21.542664
2022-08-27T08:44:57.333Z,21.512451
2022-08-27T08:46:07.017Z,21.431885
2022-08-27T08:47:15.656Z,21.421814
2022-08-27T08:48:24.332Z,21.50238
2022-08-27T08:49:34.002Z,21.522522
2022-08-27T08:50:41.653Z,21.582947
2022-08-27T08:51:50.298Z,21.572876
2022-08-27T08:52:59.968Z,21.542664
2022-08-27T08:54:08.787Z,21.643372
2022-08-27T08:55:18.457Z,21.734009
2022-08-27T08:56:28.115Z,21.703796
2022-08-27T08:57:36.779Z,21.723938
2022-08-27T08:58:46.463Z,21.764221
2022-08-27T08:59:56.120Z,21.774292
2022-08-27T09:01:04.837Z,21.804504
2022-08-27T09:02:14.449Z,21.925354
2022-08-27T09:03:23.172Z,21.985779
2022-08-27T09:04:32.790Z,22.015991
2022-08-27T09:05:42.514Z,22.076416
2022-08-27T09:06:51.176Z,22.056274
2022-08-27T09:08:15.329Z,22.106628
2022-08-27T09:09:11.451Z,22.12677
2022-08-27T09:10:21.122Z,22.12677
2022-08-27T09:11:30.827Z,21.875
2022-08-27T09:12:39.495Z,21.643372
2022-08-27T09:13:49.181Z,21.613159
2022-08-27T09:14:58.929Z,21.693726
2022-08-27T09:16:08.565Z,21.824646
2022-08-27T09:17:18.278Z,21.925354
2022-08-27T09:18:28.054Z,21.955566
2022-08-27T09:19:36.591Z,21.905212
2022-08-27T09:20:46.284Z,21.905212
2022-08-27T09:21:53.934Z,21.985779
2022-08-27T09:23:03.629Z,22.096558
2022-08-27T09:24:13.299Z,22.197266
2022-08-27T09:25:21.218Z,22.227478
2022-08-27T09:26:30.605Z,22.358398
2022-08-27T09:27:38.246Z,22.428894
2022-08-27T09:28:46.923Z,22.529602
2022-08-27T09:29:56.585Z,22.590027
2022-08-27T09:31:05.258Z,22.650452
2022-08-27T09:32:14.898Z,22.690735
2022-08-27T09:33:23.554Z,22.781372
2022-08-27T09:34:34.342Z,22.650452
2022-08-27T09:35:44.031Z,22.731018
2022-08-27T09:36:52.685Z,22.620239
2022-08-27T09:38:02.335Z,22.600098
2022-08-27T09:39:12.022Z,22.650452
2022-08-27T09:40:19.716Z,22.63031
2022-08-27T09:41:29.383Z,22.700806
2022-08-27T09:42:38.074Z,22.801514
2022-08-27T09:43:48.707Z,22.76123
2022-08-27T09:44:58.387Z,22.731018
2022-08-27T09:46:06.121Z,22.811584
2022-08-27T09:47:15.753Z,22.75116
2022-08-27T09:48:24.412Z,22.660522
2022-08-27T09:49:33.078Z,22.700806
2022-08-27T09:50:43.826Z,22.801514
2022-08-27T09:51:51.453Z,22.942505
2022-08-27T09:53:01.108Z,23.053284
2022-08-27T09:54:09.784Z,23.153992
2022-08-27T09:55:17.421Z,23.315125
2022-08-27T09:56:27.083Z,23.405762
2022-08-27T09:57:35.958Z,23.627319
2022-08-27T09:58:45.632Z,23.909302
2022-08-27T09:59:55.302Z,24.01001
2022-08-27T10:01:03.000Z,24.030151
2022-08-27T10:02:12.622Z,24.110718
2022-08-27T10:03:22.299Z,24.161072
2022-08-27T10:04:32.926Z,24.26178
2022-08-27T10:05:43.548Z,24.503479
2022-08-27T10:06:51.203Z,24.755249
2022-08-27T10:07:59.861Z,24.876099
2022-08-27T10:09:09.548Z,24.432983
2022-08-27T10:10:18.215Z,24.332275
2022-08-27T10:11:27.878Z,24.51355
2022-08-27T10:12:36.540Z,24.775391
2022-08-27T10:13:44.236Z,24.876099
2022-08-27T10:14:53.919Z,24.835815
2022-08-27T10:16:03.724Z,24.684753
2022-08-27T10:17:12.277Z,24.51355
2022-08-27T10:18:21.965Z,24.51355
2022-08-27T10:19:29.623Z,24.573975
2022-08-27T10:20:39.314Z,24.543762
2022-08-27T10:21:48.997Z,24.26178
2022-08-27T10:22:58.672Z,23.919373
2022-08-27T10:24:07.337Z,23.677673
2022-08-27T10:25:14.999Z,23.556824
2022-08-27T10:26:23.669Z,23.677673
2022-08-27T10:27:34.316Z,23.738098
2022-08-27T10:28:44.099Z,23.838806
2022-08-27T10:29:51.641Z,23.768311
2022-08-27T10:31:01.301Z,23.778381
2022-08-27T10:32:10.056Z,23.858948
2022-08-27T10:33:23.334Z,23.949585
2022-08-27T10:34:29.316Z,23.919373
2022-08-27T10:35:46.820Z,23.919373
2022-08-27T10:36:49.570Z,23.929443
2022-08-27T10:37:58.361Z,23.949585
2022-08-27T10:39:08.012Z,24.01001
2022-08-27T10:40:17.712Z,24.030151
2022-08-27T10:41:25.335Z,24.020081
2022-08-27T10:42:35.014Z,24.100647
2022-08-27T10:43:43.699Z,24.161072
2022-08-27T10:44:52.366Z,24.181213
2022-08-27T10:46:02.123Z,24.322205
2022-08-27T10:47:10.712Z,24.322205
2022-08-27T10:48:20.451Z,24.402771
2022-08-27T10:49:29.128Z,24.432983
2022-08-27T10:50:37.818Z,24.503479
2022-08-27T10:51:47.488Z,24.573975
2022-08-27T10:52:55.142Z,24.694824
2022-08-27T10:54:03.790Z,24.835815
2022-08-27T10:55:14.479Z,24.956665
2022-08-27T10:56:24.257Z,24.855957
2022-08-27T10:57:51.988Z,24.916382
2022-08-27T10:58:44.541Z,24.986877
2022-08-27T10:59:52.217Z,25.027161
2022-08-27T11:01:02.116Z,24.906311
2022-08-27T11:02:10.807Z,24.725037
2022-08-27T11:03:19.505Z,24.704895
2022-08-27T11:04:30.158Z,24.725037
2022-08-27T11:05:39.862Z,24.76532
2022-08-27T11:06:49.560Z,24.584045
2022-08-27T11:07:59.241Z,24.322205
2022-08-27T11:09:08.895Z,24.201355
2022-08-27T11:10:20.862Z,24.231567
2022-08-27T11:12:37.882Z,24.332275
2022-08-27T11:13:47.536Z,24.422913
2022-08-27T11:14:57.216Z,24.473267
2022-08-27T11:16:06.985Z,24.503479
2022-08-27T11:17:15.543Z,24.553833
2022-08-27T11:18:24.252Z,24.634399
2022-08-27T11:19:33.914Z,24.725037
2022-08-27T11:20:41.568Z,24.906311
2022-08-27T11:21:50.227Z,25.309143
2022-08-27T11:22:59.881Z,25.661621
2022-08-27T11:24:07.575Z,25.993958
2022-08-27T11:25:17.254Z,26.356506
2022-08-27T11:26:25.912Z,26.64856
2022-08-27T11:27:34.583Z,26.749268
2022-08-27T11:28:44.248Z,26.799622
2022-08-27T11:29:52.930Z,26.729126
2022-08-27T11:31:02.558Z,26.64856
2022-08-27T11:32:12.241Z,26.64856
2022-08-27T11:33:19.916Z,26.678772
2022-08-27T11:34:29.627Z,26.729126
2022-08-27T11:35:38.294Z,26.698914
2022-08-27T11:36:45.949Z,26.618347
2022-08-27T11:37:55.597Z,26.52771
2022-08-27T11:39:05.318Z,26.52771
2022-08-27T11:40:14.994Z,26.437073
2022-08-27T11:41:24.677Z,26.40686
2022-08-27T11:42:34.323Z,26.376648
2022-08-27T11:43:44.024Z,26.27594
2022-08-27T11:44:51.668Z,26.064453
2022-08-27T11:46:01.320Z,26.064453
2022-08-27T11:47:09.059Z,26.104736
2022-08-27T11:48:16.680Z,26.054382
2022-08-27T11:49:26.337Z,26.02417
2022-08-27T11:50:34.000Z,25.913391
2022-08-27T11:51:43.645Z,25.802612
2022-08-27T11:52:53.348Z,25.812683
2022-08-27T11:54:01.009Z,25.802612
2022-08-27T11:55:10.661Z,25.90332
2022-08-27T11:56:19.331Z,25.873108
2022-08-27T11:57:26.982Z,25.722046
2022-08-27T11:58:52.928Z,25.732117
2022-08-27T11:59:47.324Z,25.752258
2022-08-27T12:00:55.983Z,25.832825
2022-08-27T12:02:05.624Z,25.842896
2022-08-27T12:03:13.345Z,25.90332
2022-08-27T12:04:23.202Z,25.953674
2022-08-27T12:05:31.823Z,25.933533
2022-08-27T12:06:40.501Z,25.953674
2022-08-27T12:07:50.196Z,26.004028
2022-08-27T12:08:58.864Z,26.074524
2022-08-27T12:10:08.581Z,26.205444
2022-08-27T12:11:18.222Z,26.306152
2022-08-27T12:12:26.884Z,26.306152
2022-08-27T12:13:36.545Z,26.27594
2022-08-27T12:14:45.229Z,26.286011
2022-08-27T12:15:54.918Z,26.326294
2022-08-27T12:17:04.562Z,26.447144
2022-08-27T12:18:12.376Z,26.547852
2022-08-27T12:19:20.910Z,26.628418
2022-08-27T12:20:30.573Z,26.52771
2022-08-27T12:21:40.242Z,26.547852
2022-08-27T12:22:48.905Z,26.739197
2022-08-27T12:23:57.561Z,26.930542
2022-08-27T12:25:06.236Z,27.172241
2022-08-27T12:26:15.940Z,27.272949
2022-08-27T12:27:23.694Z,27.353516
2022-08-27T12:28:33.386Z,27.40387
2022-08-27T12:29:43.868Z,27.444153
2022-08-27T12:30:50.694Z,27.766418
2022-08-27T12:32:00.402Z,28.048401
2022-08-27T12:33:10.061Z,28.562012
2022-08-27T12:34:18.567Z,28.864136
2022-08-27T12:35:27.396Z,29.317322
2022-08-27T12:36:36.054Z,29.186401
2022-08-27T12:37:44.703Z,28.974915
2022-08-27T12:38:55.415Z,28.934631
2022-08-27T12:40:05.148Z,29.156189
2022-08-27T12:41:17.941Z,29.04541
2022-08-27T12:42:24.422Z,29.16626
2022-08-27T12:43:32.097Z,29.287109
2022-08-27T12:44:40.859Z,29.075623
2022-08-27T12:45:48.528Z,29.035339
2022-08-27T12:46:57.239Z,29.216614
2022-08-27T12:48:06.836Z,29.035339
2022-08-27T12:49:36.218Z,29.035339
2022-08-27T12:50:25.178Z,29.04541
2022-08-27T12:51:34.861Z,29.035339
2022-08-27T12:52:44.542Z,28.91449
2022-08-27T12:53:54.219Z,29.04541
2022-08-27T12:55:02.878Z,28.753357
2022-08-27T12:56:11.554Z,28.511658
2022-08-27T12:57:21.228Z,28.481445
2022-08-27T12:58:29.897Z,28.602295
2022-08-27T12:59:39.562Z,28.451233
2022-08-27T13:00:48.328Z,28.2901
2022-08-27T13:01:56.002Z,28.03833
2022-08-27T13:03:05.595Z,27.947693
2022-08-27T13:04:14.292Z,27.846985
2022-08-27T13:05:21.951Z,27.695923
2022-08-27T13:06:30.618Z,27.524719
2022-08-27T13:07:39.519Z,27.424011
2022-08-27T13:08:49.291Z,27.424011
2022-08-27T13:09:58.860Z,27.293091
2022-08-27T13:11:07.518Z,27.333374